Time;durP1;ratioP1;P1;durP2;ratioP2;P2;SDS_P1;SDS_P2;PMS_P1;PMS_P2;Temp;Humidity;BMP_temperature;BMP_pressure;BME280_temperature;BME280_humidity;BME280_pressure;Samples;Min_cycle;Max_cycle;Signal;HPM_P1;HPM_P2
2022/03/17 00:01:22;;;;;;;1.97;1.77;;;12.30;94.30;;;;;;5059519;28;20465;-72
2022/03/17 00:03:49;;;;;;;1.50;1.20;;;12.20;94.30;;;;;;5068012;28;20822;-73
2022/03/17 00:06:17;;;;;;;1.90;1.80;;;12.20;94.20;;;;;;5067880;28;20485;-72
2022/03/17 00:08:43;;;;;;;1.50;1.10;;;12.30;94.30;;;;;;5068252;28;20548;-72
2022/03/17 00:11:11;;;;;;;2.43;1.57;;;12.30;94.20;;;;;;5058311;28;20873;-73
2022/03/17 00:13:38;;;;;;;1.50;1.10;;;12.30;94.20;;;;;;5068346;28;20461;-73
2022/03/17 00:16:06;;;;;;;1.50;1.00;;;12.20;94.30;;;;;;5065938;28;20485;-72
2022/03/17 00:18:32;;;;;;;1.47;0.97;;;12.20;94.30;;;;;;5063451;28;20555;-72
2022/03/17 00:20:59;;;;;;;12.77;11.73;;;12.30;94.10;;;;;;5065922;28;20650;-72
2022/03/17 00:23:26;;;;;;;2.23;1.83;;;12.20;93.90;;;;;;5067864;28;20496;-73
2022/03/17 00:25:52;;;;;;;1.60;1.47;;;12.20;94.00;;;;;;5063807;28;20568;-73
2022/03/17 00:28:21;;;;;;;4.13;3.10;;;12.20;94.00;;;;;;5054637;28;20470;-73
2022/03/17 00:30:47;;;;;;;4.10;3.83;;;12.20;94.10;;;;;;5062403;28;20489;-73
2022/03/17 00:33:14;;;;;;;1.50;1.00;;;12.20;94.20;;;;;;5067722;28;20465;-73
2022/03/17 00:35:42;;;;;;;1.50;1.20;;;12.20;94.20;;;;;;5062969;28;20485;-73
2022/03/17 00:38:11;;;;;;;1.77;1.67;;;12.20;94.00;;;;;;5067163;28;20979;-73
2022/03/17 00:40:40;;;;;;;1.50;1.00;;;12.20;94.00;;;;;;5064862;28;20472;-73
2022/03/17 00:43:11;;;;;;;1.60;1.40;;;12.20;94.10;;;;;;5067137;28;20898;-73
2022/03/17 00:45:39;;;;;;;1.47;1.00;;;12.20;94.10;;;;;;5067934;28;21115;-73
2022/03/17 00:48:06;;;;;;;1.50;1.10;;;12.20;94.00;;;;;;5067300;28;20469;-73
2022/03/17 00:50:33;;;;;;;1.50;1.10;;;12.20;93.90;;;;;;5063737;28;20484;-73
2022/03/17 00:53:01;;;;;;;1.50;1.00;;;12.20;93.90;;;;;;5067387;28;20917;-73
2022/03/17 00:55:28;;;;;;;1.60;1.40;;;12.20;94.00;;;;;;5068245;28;20496;-73
2022/03/17 00:57:55;;;;;;;1.50;1.00;;;12.20;94.10;;;;;;5060386;28;21052;-73
2022/03/17 01:00:23;;;;;;;1.50;1.00;;;12.20;94.20;;;;;;5063919;28;20458;-74
2022/03/17 01:02:53;;;;;;;1.50;1.00;;;12.20;94.30;;;;;;5070823;28;20461;-73
2022/03/17 01:05:21;;;;;;;1.83;1.60;;;12.20;94.30;;;;;;5069725;28;20510;-74
2022/03/17 01:07:48;;;;;;;1.50;1.20;;;12.20;94.50;;;;;;5069330;28;20513;-73
2022/03/17 01:10:17;;;;;;;1.47;1.00;;;12.20;94.50;;;;;;5070528;28;20468;-72
2022/03/17 01:12:46;;;;;;;1.50;1.10;;;12.10;94.50;;;;;;5070897;28;20865;-72
2022/03/17 01:15:13;;;;;;;1.47;1.00;;;12.10;94.60;;;;;;5070648;28;20520;-72
2022/03/17 01:17:40;;;;;;;1.67;1.43;;;12.10;94.70;;;;;;5073882;28;20493;-72
2022/03/17 01:20:10;;;;;;;1.50;1.07;;;12.10;94.60;;;;;;5068482;28;20480;-72
2022/03/17 01:22:37;;;;;;;1.50;1.10;;;12.10;94.50;;;;;;5068123;28;20461;-72
2022/03/17 01:25:05;;;;;;;1.50;1.10;;;12.10;94.80;;;;;;5070047;28;20477;-71
2022/03/17 01:27:34;;;;;;;1.50;1.10;;;12.10;94.60;;;;;;5059941;28;20468;-72
2022/03/17 01:30:02;;;;;;;1.50;1.20;;;12.10;94.70;;;;;;5064590;28;20467;-72
2022/03/17 01:32:31;;;;;;;1.47;1.00;;;12.10;94.90;;;;;;5065401;28;20489;-72
2022/03/17 01:34:58;;;;;;;1.50;1.00;;;12.10;94.80;;;;;;5071329;28;20465;-72
2022/03/17 01:37:27;;;;;;;1.47;1.17;;;12.10;94.90;;;;;;5070369;28;20465;-72
2022/03/17 01:39:54;;;;;;;1.50;1.10;;;12.10;94.80;;;;;;5068966;28;20520;-72
2022/03/17 01:42:21;;;;;;;1.60;1.30;;;12.10;94.70;;;;;;5054954;28;20481;-72
2022/03/17 01:44:48;;;;;;;2.07;1.53;;;12.10;94.80;;;;;;5070454;28;20468;-72
2022/03/17 01:47:31;;;;;;;1.50;1.07;;;12.10;94.80;;;;;;5065297;28;20469;-72
2022/03/17 01:50:01;;;;;;;1.50;1.10;;;12.10;95.00;;;;;;5069240;28;20552;-72
2022/03/17 01:52:29;;;;;;;1.60;1.10;;;12.10;94.90;;;;;;5072313;28;20476;-72
2022/03/17 01:54:57;;;;;;;1.50;1.10;;;12.10;94.90;;;;;;5066974;28;20458;-72
2022/03/17 01:57:24;;;;;;;1.50;1.10;;;12.10;94.90;;;;;;5065239;28;20834;-72
2022/03/17 01:59:52;;;;;;;1.50;1.00;;;12.10;94.90;;;;;;5057804;28;20466;-72
2022/03/17 02:02:20;;;;;;;1.50;1.10;;;12.00;95.00;;;;;;5069556;28;20453;-72
2022/03/17 02:04:48;;;;;;;1.50;1.20;;;12.00;94.90;;;;;;5066615;28;20967;-72
2022/03/17 02:07:16;;;;;;;1.47;1.00;;;12.00;94.80;;;;;;5056896;28;20488;-72
2022/03/17 02:09:45;;;;;;;1.50;1.10;;;12.00;94.60;;;;;;5068692;28;20457;-72
2022/03/17 02:14:59;;;;;;;1.50;1.10;;;12.00;94.70;;;;;;5066988;28;20449;-72
2022/03/17 02:17:27;;;;;;;1.50;1.10;;;12.00;94.60;;;;;;5055195;28;20457;-72
2022/03/17 02:19:55;;;;;;;1.50;1.13;;;12.00;94.60;;;;;;5062178;28;20485;-72
2022/03/17 02:22:23;;;;;;;1.50;1.20;;;12.00;94.60;;;;;;5067040;28;20461;-71
2022/03/17 02:27:41;;;;;;;1.50;1.10;;;12.00;94.70;;;;;;5062116;28;20477;-71
2022/03/17 02:30:09;;;;;;;1.50;1.27;;;12.00;94.90;;;;;;5059592;28;20454;-72
2022/03/17 02:32:36;;;;;;;1.50;1.10;;;12.00;94.90;;;;;;5067937;28;20561;-72
2022/03/17 02:35:05;;;;;;;1.60;1.40;;;12.00;94.90;;;;;;5068875;28;20488;-72
2022/03/17 02:37:33;;;;;;;1.50;1.10;;;12.00;94.80;;;;;;5064405;28;20489;-72
2022/03/17 02:40:01;;;;;;;1.53;1.20;;;12.00;95.00;;;;;;5063545;28;20465;-72
2022/03/17 02:42:30;;;;;;;1.50;1.10;;;12.00;95.00;;;;;;5067936;28;20462;-72
2022/03/17 02:44:57;;;;;;;1.50;1.10;;;12.00;95.00;;;;;;5067532;28;20468;-72
2022/03/17 02:47:24;;;;;;;1.50;1.10;;;12.00;95.00;;;;;;5065013;28;20560;-72
2022/03/17 02:49:52;;;;;;;1.50;1.10;;;12.00;95.00;;;;;;5067380;28;20462;-72
2022/03/17 02:52:20;;;;;;;1.50;1.10;;;12.00;94.90;;;;;;5066696;28;21045;-72
2022/03/17 02:54:46;;;;;;;4.17;3.87;;;12.00;94.90;;;;;;5069454;28;20488;-72
2022/03/17 02:57:15;;;;;;;1.90;1.40;;;12.00;95.00;;;;;;5056747;28;20489;-72
2022/03/17 02:59:42;;;;;;;1.60;1.23;;;12.00;94.70;;;;;;5061615;28;20473;-72
2022/03/17 03:02:08;;;;;;;1.50;1.10;;;12.00;94.70;;;;;;5056290;28;20493;-72
2022/03/17 03:04:36;;;;;;;1.80;1.70;;;12.00;94.80;;;;;;5068320;28;20469;-72
2022/03/17 03:07:03;;;;;;;1.50;1.00;;;12.00;94.70;;;;;;5053351;28;20488;-72
2022/03/17 03:09:30;;;;;;;1.50;1.30;;;12.00;94.70;;;;;;5066912;28;20476;-72
2022/03/17 03:11:57;;;;;;;1.50;1.00;;;12.00;94.90;;;;;;5068020;28;20492;-72
2022/03/17 03:14:25;;;;;;;1.60;1.40;;;11.90;94.90;;;;;;5066620;28;20553;-72
2022/03/17 03:16:52;;;;;;;1.70;1.40;;;11.90;94.90;;;;;;5086084;22;21150;-70
2022/03/17 03:19:19;;;;;;;1.70;1.53;;;11.90;95.00;;;;;;5069735;28;20450;-70
2022/03/17 03:21:46;;;;;;;1.50;1.13;;;11.90;95.00;;;;;;5070877;28;20448;-69
2022/03/17 03:24:14;;;;;;;2.43;2.23;;;11.90;95.20;;;;;;5087991;28;20468;-70
2022/03/17 03:26:41;;;;;;;1.50;1.07;;;11.90;95.20;;;;;;5072984;28;20473;-70
2022/03/17 03:29:10;;;;;;;1.93;1.73;;;11.90;95.40;;;;;;5055082;28;20997;-70
2022/03/17 03:31:38;;;;;;;2.17;1.97;;;11.90;95.20;;;;;;5063177;28;20564;-70
2022/03/17 03:34:05;;;;;;;1.93;1.70;;;11.90;95.30;;;;;;5068781;28;20468;-70
2022/03/17 03:39:21;;;;;;;1.60;1.40;;;11.90;95.40;;;;;;5054846;28;20450;-71
2022/03/17 03:41:48;;;;;;;24.97;11.10;;;11.90;95.60;;;;;;5073964;28;20464;-70
2022/03/17 03:44:15;;;;;;;1.50;1.20;;;11.90;95.90;;;;;;5088041;28;20468;-69
2022/03/17 03:46:45;;;;;;;1.50;1.10;;;11.90;95.90;;;;;;5077708;28;21040;-70
2022/03/17 03:49:12;;;;;;;1.50;1.00;;;11.90;96.00;;;;;;5066172;28;20507;-70
2022/03/17 03:51:38;;;;;;;2.30;2.10;;;11.90;96.00;;;;;;5054192;28;20474;-70
2022/03/17 03:54:15;;;;;;;1.50;1.00;;;11.90;96.00;;;;;;5073942;28;20456;-70
2022/03/17 03:56:44;;;;;;;1.63;1.40;;;11.80;96.00;;;;;;5056955;28;20474;-70
2022/03/17 03:59:14;;;;;;;1.50;1.10;;;11.80;96.00;;;;;;5067598;28;20519;-70
2022/03/17 04:01:42;;;;;;;1.50;1.03;;;11.80;95.90;;;;;;5058119;28;21031;-69
2022/03/17 04:04:11;;;;;;;1.80;1.20;;;11.80;96.20;;;;;;5077524;28;20465;-69
2022/03/17 04:06:39;;;;;;;1.50;1.20;;;11.80;96.40;;;;;;5063757;28;20861;-70
2022/03/17 04:09:06;;;;;;;1.50;1.20;;;11.80;96.80;;;;;;5063419;28;20540;-70
2022/03/17 04:11:32;;;;;;;1.50;1.20;;;11.70;97.10;;;;;;5065212;28;20967;-70
2022/03/17 04:13:59;;;;;;;1.90;1.70;;;11.70;97.40;;;;;;5066374;28;20465;-69
2022/03/17 04:16:26;;;;;;;2.33;2.13;;;11.70;97.80;;;;;;5069592;28;20924;-69
2022/03/17 04:18:54;;;;;;;1.50;1.07;;;11.60;98.10;;;;;;5071306;28;20488;-69
2022/03/17 04:21:21;;;;;;;1.60;1.33;;;11.60;98.20;;;;;;5057926;28;20489;-69
2022/03/17 04:23:48;;;;;;;2.33;2.13;;;11.60;98.20;;;;;;5075786;28;21008;-69
2022/03/17 04:26:15;;;;;;;1.50;1.10;;;11.50;98.20;;;;;;5062676;28;20548;-68
2022/03/17 04:28:42;;;;;;;1.50;1.10;;;11.50;98.20;;;;;;5054668;28;20462;-68
2022/03/17 04:31:08;;;;;;;1.50;1.20;;;11.40;98.20;;;;;;5070195;28;20461;-69
2022/03/17 04:33:35;;;;;;;1.60;1.10;;;11.40;98.20;;;;;;5087646;28;21085;-69
2022/03/17 04:36:04;;;;;;;1.50;1.20;;;11.40;98.20;;;;;;5065806;28;21352;-69
2022/03/17 04:38:31;;;;;;;1.50;1.10;;;11.30;98.20;;;;;;5073408;28;20461;-69
2022/03/17 04:40:57;;;;;;;1.50;1.10;;;11.30;98.20;;;;;;5070121;28;20465;-69
2022/03/17 04:43:24;;;;;;;1.50;1.13;;;11.20;98.20;;;;;;5076035;28;20458;-69
2022/03/17 04:45:51;;;;;;;1.50;1.10;;;11.10;98.20;;;;;;5080314;28;20486;-68
2022/03/17 04:48:18;;;;;;;1.50;1.07;;;11.10;98.20;;;;;;5066791;28;20461;-69
2022/03/17 04:50:45;;;;;;;1.50;1.10;;;11.10;98.20;;;;;;5070840;28;20484;-69
2022/03/17 04:53:29;;;;;;;1.50;1.10;;;11.10;98.20;;;;;;5078157;28;20480;-69
2022/03/17 04:55:57;;;;;;;1.50;1.10;;;11.00;98.20;;;;;;5078816;28;20533;-69
2022/03/17 04:58:24;;;;;;;1.50;1.10;;;11.00;98.20;;;;;;5057797;28;20470;-69
2022/03/17 05:00:52;;;;;;;1.50;1.10;;;11.00;98.20;;;;;;5067235;28;20563;-68
2022/03/17 05:03:20;;;;;;;1.60;1.50;;;11.00;98.20;;;;;;5087596;28;20460;-69
2022/03/17 05:05:47;;;;;;;1.50;1.30;;;10.90;98.20;;;;;;5091176;28;21000;-69
2022/03/17 05:08:15;;;;;;;1.90;1.37;;;10.90;98.20;;;;;;5084017;28;20460;-69
2022/03/17 05:10:43;;;;;;;1.50;1.10;;;10.90;98.20;;;;;;5070387;28;20465;-69
2022/03/17 05:13:12;;;;;;;1.50;1.10;;;10.80;98.20;;;;;;5072427;28;20489;-68
2022/03/17 05:15:39;;;;;;;1.50;1.00;;;10.80;98.20;;;;;;5072932;28;20568;-69
2022/03/17 05:18:07;;;;;;;1.50;1.10;;;10.80;98.20;;;;;;5067982;28;20937;-69
2022/03/17 05:20:35;;;;;;;1.50;1.10;;;10.70;98.20;;;;;;5069482;28;20496;-69
2022/03/17 05:23:04;;;;;;;1.50;1.10;;;10.70;98.20;;;;;;5074753;28;20541;-70
2022/03/17 05:25:32;;;;;;;1.50;1.10;;;10.70;98.20;;;;;;5065530;28;20561;-69
2022/03/17 05:28:00;;;;;;;1.50;1.10;;;10.70;98.20;;;;;;5068054;28;20457;-69
2022/03/17 05:30:27;;;;;;;1.50;1.10;;;10.70;98.20;;;;;;5084958;28;21027;-69
2022/03/17 05:32:54;;;;;;;1.50;1.20;;;10.70;98.20;;;;;;5070205;28;20718;-69
2022/03/17 05:35:21;;;;;;;1.50;1.10;;;10.70;98.20;;;;;;5070327;28;20907;-69
2022/03/17 05:37:48;;;;;;;1.50;1.13;;;10.70;98.20;;;;;;5081264;28;20456;-69
2022/03/17 05:40:17;;;;;;;1.50;1.10;;;10.70;98.20;;;;;;5080485;28;20469;-68
2022/03/17 05:42:48;;;;;;;1.50;1.10;;;10.70;98.20;;;;;;5078681;28;21033;-69
2022/03/17 05:45:16;;;;;;;1.50;1.20;;;10.70;98.20;;;;;;5077669;28;20453;-70
2022/03/17 05:47:45;;;;;;;1.50;1.10;;;10.70;98.20;;;;;;5075693;28;21114;-70
2022/03/17 05:50:13;;;;;;;1.50;1.20;;;10.70;98.20;;;;;;5066062;28;20978;-70
2022/03/17 05:52:42;;;;;;;1.50;1.17;;;10.70;98.20;;;;;;5082225;28;20511;-69
2022/03/17 05:55:10;;;;;;;1.50;1.10;;;10.60;98.20;;;;;;5089864;28;20468;-70
2022/03/17 05:57:37;;;;;;;1.50;1.10;;;10.60;98.20;;;;;;5060205;28;20489;-69
2022/03/17 06:00:08;;;;;;;1.50;1.07;;;10.60;98.20;;;;;;5072899;28;21109;-69
2022/03/17 06:02:35;;;;;;;1.50;1.07;;;10.60;98.20;;;;;;5076584;28;20449;-71
2022/03/17 06:05:03;;;;;;;1.60;1.33;;;10.60;98.20;;;;;;5089876;28;20456;-69
2022/03/17 06:07:36;;;;;;;1.50;1.10;;;10.60;98.20;;;;;;5075223;28;20449;-68
2022/03/17 06:10:04;;;;;;;1.50;1.20;;;10.60;98.20;;;;;;5063452;28;20493;-69
2022/03/17 06:12:31;;;;;;;1.50;1.10;;;10.50;98.20;;;;;;5069846;28;20507;-68
2022/03/17 06:14:58;;;;;;;1.53;1.33;;;10.50;98.20;;;;;;5089173;28;20495;-68
2022/03/17 06:17:36;;;;;;;1.50;1.10;;;10.40;98.20;;;;;;5067193;28;20488;-68
2022/03/17 06:20:03;;;;;;;1.50;1.00;;;10.40;98.20;;;;;;5073005;28;20654;-68
2022/03/17 06:22:30;;;;;;;1.50;1.23;;;10.30;98.20;;;;;;5054438;28;20467;-68
2022/03/17 06:24:57;;;;;;;1.50;1.10;;;10.30;98.20;;;;;;5060806;28;20465;-68
2022/03/17 06:27:24;;;;;;;1.50;1.20;;;10.30;98.20;;;;;;5064249;28;20491;-68
2022/03/17 06:29:50;;;;;;;1.50;1.10;;;10.30;98.20;;;;;;5059120;28;20461;-68
2022/03/17 06:32:17;;;;;;;1.50;1.10;;;10.30;98.20;;;;;;5060099;28;20597;-68
2022/03/17 06:34:45;;;;;;;1.50;1.10;;;10.30;98.20;;;;;;5065131;28;20465;-67
2022/03/17 06:37:12;;;;;;;1.50;1.07;;;10.20;98.20;;;;;;5059033;28;20596;-68
2022/03/17 06:39:38;;;;;;;1.50;1.10;;;10.10;98.20;;;;;;5071939;28;20999;-67
2022/03/17 06:42:06;;;;;;;1.50;1.10;;;10.10;98.20;;;;;;5062518;28;20481;-68
2022/03/17 06:44:33;;;;;;;1.50;1.10;;;10.10;98.20;;;;;;5074968;28;20464;-68
2022/03/17 06:47:00;;;;;;;1.50;1.10;;;10.00;98.20;;;;;;5062387;28;20867;-69
2022/03/17 06:49:27;;;;;;;1.50;1.20;;;10.00;98.20;;;;;;5058702;28;20471;-68
2022/03/17 06:51:55;;;;;;;1.50;1.10;;;10.00;98.20;;;;;;5065926;28;20534;-68
2022/03/17 06:54:22;;;;;;;1.50;1.20;;;9.90;98.20;;;;;;5063003;28;20469;-69
2022/03/17 06:56:49;;;;;;;1.50;1.20;;;9.90;98.20;;;;;;5061319;28;20596;-67
2022/03/17 06:59:16;;;;;;;1.50;1.20;;;9.90;98.20;;;;;;5063511;28;20472;-71
2022/03/17 07:01:43;;;;;;;1.50;1.10;;;9.90;98.20;;;;;;5052542;28;20666;-70
2022/03/17 07:04:09;;;;;;;1.50;1.10;;;9.90;98.20;;;;;;5073687;28;20472;-71
2022/03/17 07:06:36;;;;;;;1.50;1.10;;;9.80;98.20;;;;;;5072791;28;20613;-74
2022/03/17 07:09:04;;;;;;;1.50;1.10;;;9.80;98.20;;;;;;5057847;28;20958;-71
2022/03/17 07:11:31;;;;;;;2.60;2.40;;;9.80;98.20;;;;;;5060955;28;20458;-70
2022/03/17 07:13:58;;;;;;;1.50;1.10;;;9.80;98.20;;;;;;5064878;28;20482;-70
2022/03/17 07:16:24;;;;;;;1.50;1.10;;;9.80;98.20;;;;;;5065136;28;20496;-70
2022/03/17 07:18:51;;;;;;;1.50;1.20;;;9.80;98.20;;;;;;5066708;28;20461;-72
2022/03/17 07:21:18;;;;;;;1.50;1.10;;;9.80;98.20;;;;;;5068773;28;20465;-71
2022/03/17 07:23:45;;;;;;;1.60;1.30;;;9.80;98.20;;;;;;5061626;28;21003;-72
2022/03/17 07:26:13;;;;;;;1.50;1.00;;;9.70;98.20;;;;;;5063635;28;20964;-71
2022/03/17 07:28:40;;;;;;;1.60;1.30;;;9.70;98.20;;;;;;5053654;28;20465;-71
2022/03/17 07:31:07;;;;;;;1.50;1.20;;;9.70;98.20;;;;;;5057770;28;20648;-70
2022/03/17 07:33:34;;;;;;;1.50;1.10;;;9.70;98.20;;;;;;5072407;28;20864;-71
2022/03/17 07:36:01;;;;;;;1.50;1.10;;;9.70;98.20;;;;;;5066449;28;20493;-71
2022/03/17 07:38:28;;;;;;;1.50;1.10;;;9.70;98.20;;;;;;5075023;28;20843;-73
2022/03/17 07:40:54;;;;;;;1.50;1.10;;;9.70;98.20;;;;;;5062708;28;20845;-72
2022/03/17 07:43:23;;;;;;;1.50;1.10;;;9.70;98.20;;;;;;5065355;28;20489;-72
2022/03/17 07:45:53;;;;;;;1.53;1.10;;;9.70;98.20;;;;;;5064279;28;20498;-73
2022/03/17 07:48:19;;;;;;;1.57;1.10;;;9.70;98.20;;;;;;5059473;28;20518;-72
2022/03/17 07:50:46;;;;;;;1.50;1.07;;;9.70;98.20;;;;;;5062892;28;20469;-71
2022/03/17 07:53:13;;;;;;;1.53;1.13;;;9.70;98.20;;;;;;5065486;28;21044;-72
2022/03/17 07:55:42;;;;;;;1.50;1.10;;;9.70;98.20;;;;;;5072704;28;20486;-74
2022/03/17 07:58:10;;;;;;;1.80;1.50;;;9.60;98.20;;;;;;5053329;28;20954;-74
2022/03/17 08:00:39;;;;;;;1.50;1.20;;;9.60;98.20;;;;;;5068567;28;20967;-70
2022/03/17 08:03:06;;;;;;;1.60;1.20;;;9.60;98.20;;;;;;5061412;28;20469;-72
2022/03/17 08:05:33;;;;;;;1.50;1.10;;;9.50;98.20;;;;;;5064068;28;20477;-72
2022/03/17 08:08:00;;;;;;;1.50;1.20;;;9.40;98.20;;;;;;5062116;28;20462;-72
2022/03/17 08:10:28;;;;;;;1.60;1.50;;;9.40;98.20;;;;;;5061985;28;20469;-72
2022/03/17 08:12:54;;;;;;;1.50;1.10;;;9.30;98.20;;;;;;5063953;28;20477;-71
2022/03/17 08:15:22;;;;;;;1.50;1.10;;;9.30;98.20;;;;;;5071885;28;20464;-71
2022/03/17 08:17:50;;;;;;;1.50;1.17;;;9.30;98.20;;;;;;5063601;28;20461;-70
2022/03/17 08:20:18;;;;;;;1.50;1.17;;;9.30;98.20;;;;;;5063209;28;20556;-72
2022/03/17 08:22:45;;;;;;;1.50;1.20;;;9.30;98.20;;;;;;5066237;28;20856;-70
2022/03/17 08:25:12;;;;;;;1.53;1.10;;;9.30;98.20;;;;;;5064555;28;20471;-71
2022/03/17 08:27:40;;;;;;;1.60;1.40;;;9.40;98.20;;;;;;5062987;28;20477;-75
2022/03/17 08:30:07;;;;;;;1.50;1.00;;;9.40;98.20;;;;;;5062293;28;20462;-73
2022/03/17 08:32:34;;;;;;;1.50;1.10;;;9.50;98.20;;;;;;5064496;28;20469;-73
2022/03/17 08:35:03;;;;;;;1.50;1.10;;;9.40;98.20;;;;;;5065535;28;20630;-72
2022/03/17 08:37:30;;;;;;;1.50;1.10;;;9.40;98.20;;;;;;5064555;28;20531;-71
2022/03/17 08:39:57;;;;;;;1.50;1.10;;;9.40;98.20;;;;;;5063403;28;20474;-72
2022/03/17 08:42:23;;;;;;;1.57;1.20;;;9.30;98.20;;;;;;5057336;28;20469;-73
2022/03/17 08:44:50;;;;;;;1.50;1.10;;;9.30;98.20;;;;;;5071288;28;20459;-71
2022/03/17 08:50:02;;;;;;;1.50;1.20;;;9.30;98.20;;;;;;5060985;28;20440;-72
2022/03/17 08:52:30;;;;;;;1.53;1.10;;;9.30;98.20;;;;;;5060148;28;20852;-71
2022/03/17 08:54:58;;;;;;;1.60;1.30;;;9.20;98.20;;;;;;5064885;28;20492;-72
2022/03/17 08:57:25;;;;;;;1.50;1.00;;;9.20;98.20;;;;;;5065316;28;20514;-73
2022/03/17 08:59:53;;;;;;;1.50;1.10;;;9.20;98.20;;;;;;5059981;28;20679;-72
2022/03/17 09:02:19;;;;;;;1.50;1.10;;;9.20;98.20;;;;;;5061714;28;20843;-71
2022/03/17 09:04:46;;;;;;;1.50;1.10;;;9.20;98.20;;;;;;5062146;28;20498;-72
2022/03/17 09:07:14;;;;;;;1.50;1.10;;;9.20;98.20;;;;;;5049776;28;20500;-72
2022/03/17 09:09:41;;;;;;;1.50;1.10;;;9.20;98.20;;;;;;5061050;28;20465;-73
2022/03/17 09:12:09;;;;;;;1.60;1.30;;;9.20;98.20;;;;;;5063501;28;20469;-72
2022/03/17 09:14:40;;;;;;;1.50;1.27;;;9.20;98.20;;;;;;5066997;28;20520;-73
2022/03/17 09:17:07;;;;;;;1.50;1.10;;;9.30;98.20;;;;;;5053402;28;20488;-71
2022/03/17 09:19:34;;;;;;;1.50;1.10;;;9.30;98.20;;;;;;5073900;28;20560;-71
2022/03/17 09:22:01;;;;;;;1.50;1.20;;;9.40;98.20;;;;;;5062657;28;20485;-71
2022/03/17 09:24:30;;;;;;;3.17;2.90;;;9.50;98.20;;;;;;5067643;28;21094;-71
2022/03/17 09:26:57;;;;;;;1.50;1.20;;;9.60;98.20;;;;;;5070156;28;21007;-72
2022/03/17 09:29:27;;;;;;;1.50;1.20;;;9.70;98.20;;;;;;5071885;28;20453;-72
2022/03/17 09:31:54;;;;;;;1.50;1.10;;;9.70;98.20;;;;;;5057348;28;20556;-72
2022/03/17 09:34:21;;;;;;;1.50;1.20;;;9.80;98.20;;;;;;5088542;28;20886;-72
2022/03/17 09:36:48;;;;;;;1.53;1.30;;;9.90;98.20;;;;;;5081303;28;20484;-73
2022/03/17 09:42:00;;;;;;;1.50;1.00;;;10.10;98.20;;;;;;5066103;28;20558;-72
2022/03/17 09:44:28;;;;;;;1.50;1.20;;;10.10;98.20;;;;;;5073936;28;20820;-72
2022/03/17 09:46:59;;;;;;;1.53;1.13;;;10.20;98.20;;;;;;5062884;28;20938;-73
2022/03/17 09:49:27;;;;;;;1.60;1.23;;;10.20;98.20;;;;;;5077953;28;20461;-73
2022/03/17 09:51:55;;;;;;;1.50;1.10;;;10.30;98.20;;;;;;5088529;28;20468;-72
2022/03/17 09:54:22;;;;;;;1.50;1.10;;;10.30;98.20;;;;;;5091358;28;20599;-74
2022/03/17 09:56:49;;;;;;;1.50;1.00;;;10.30;98.20;;;;;;5069662;28;20495;-72
2022/03/17 09:59:17;;;;;;;1.50;1.10;;;10.30;98.20;;;;;;5084015;28;20456;-76
2022/03/17 10:01:45;;;;;;;1.50;1.10;;;10.40;98.20;;;;;;5079870;28;20464;-76
2022/03/17 10:04:12;;;;;;;1.50;1.10;;;10.40;98.20;;;;;;5071498;28;20458;-78
2022/03/17 10:06:39;;;;;;;1.50;1.10;;;10.30;98.20;;;;;;5071286;28;20488;-73
2022/03/17 10:09:06;;;;;;;1.50;1.10;;;10.20;98.20;;;;;;5090220;28;20461;-74
2022/03/17 10:11:37;;;;;;;1.50;1.20;;;10.20;98.20;;;;;;5069047;28;20561;-75
2022/03/17 10:14:06;;;;;;;1.50;1.10;;;10.20;98.20;;;;;;5070940;28;20485;-74
2022/03/17 10:16:34;;;;;;;1.50;1.20;;;10.20;98.20;;;;;;5070177;28;20493;-74
2022/03/17 10:19:03;;;;;;;1.50;1.10;;;10.20;98.20;;;;;;5070855;28;20495;-72
2022/03/17 10:21:30;;;;;;;1.50;1.30;;;10.20;98.20;;;;;;5072115;28;20469;-72
2022/03/17 10:24:00;;;;;;;1.50;1.10;;;10.20;98.20;;;;;;5069340;28;20461;-74
2022/03/17 10:26:42;;;;;;;1.50;1.20;;;10.20;98.20;;;;;;5076841;28;20474;-77
2022/03/17 10:29:11;;;;;;;1.50;1.10;;;10.20;98.20;;;;;;5064706;28;20995;-73
2022/03/17 10:31:58;;;;;;;1.50;1.20;;;10.20;98.20;;;;;;5073852;28;20968;-76
2022/03/17 10:34:28;;;;;;;1.50;1.10;;;10.20;98.20;;;;;;5089346;28;20483;-74
2022/03/17 10:37:08;;;;;;;1.50;1.10;;;10.30;98.20;;;;;;5077674;28;20485;-76
2022/03/17 10:39:42;;;;;;;1.50;1.20;;;10.30;98.20;;;;;;5088921;28;20543;-74
2022/03/17 10:42:17;;;;;;;1.60;1.20;;;10.40;98.20;;;;;;5078569;28;21147;-75
2022/03/17 10:44:49;;;;;;;1.50;1.10;;;10.40;98.20;;;;;;5083436;28;20456;-75
2022/03/17 10:47:23;;;;;;;1.50;1.10;;;10.40;98.20;;;;;;5079380;28;21003;-73
2022/03/17 10:50:01;;;;;;;1.57;1.30;;;10.40;98.20;;;;;;5088640;28;20467;-74
2022/03/17 10:52:47;;;;;;;1.50;1.17;;;10.50;98.20;;;;;;5080763;28;20450;-76
2022/03/17 10:55:14;;;;;;;1.50;1.00;;;10.50;98.20;;;;;;5070054;28;20491;-75
2022/03/17 10:57:41;;;;;;;1.50;1.10;;;10.50;98.20;;;;;;5060934;28;20486;-76
2022/03/17 11:00:20;;;;;;;1.50;1.10;;;10.50;98.20;;;;;;5063920;28;20472;-76
2022/03/17 11:02:50;;;;;;;1.50;1.10;;;10.60;98.20;;;;;;5073513;28;20544;-74
2022/03/17 11:05:18;;;;;;;1.50;1.00;;;10.60;98.20;;;;;;5089284;28;20457;-75
2022/03/17 11:07:46;;;;;;;1.50;1.00;;;10.70;98.20;;;;;;5061530;28;20458;-74
2022/03/17 11:10:15;;;;;;;1.50;1.10;;;10.80;98.20;;;;;;5062868;28;20493;-75
2022/03/17 11:12:43;;;;;;;1.50;1.10;;;10.80;98.20;;;;;;5057111;28;20458;-73
2022/03/17 11:15:11;;;;;;;1.50;1.10;;;10.90;98.20;;;;;;5075680;28;20538;-74
2022/03/17 11:17:40;;;;;;;1.50;1.10;;;10.90;98.20;;;;;;5068261;28;20462;-74
2022/03/17 11:20:11;;;;;;;1.50;1.10;;;10.80;98.20;;;;;;5066719;28;20467;-75
2022/03/17 11:22:39;;;;;;;1.50;1.10;;;10.70;98.20;;;;;;5060033;28;20458;-72
2022/03/17 11:25:20;;;;;;;1.50;1.10;;;10.70;98.20;;;;;;5070291;28;20523;-74
2022/03/17 11:27:48;;;;;;;1.50;1.20;;;10.60;98.20;;;;;;5065333;28;20476;-75
2022/03/17 11:30:16;;;;;;;1.50;1.10;;;10.70;98.20;;;;;;5082121;28;20456;-74
2022/03/17 11:32:51;;;;;;;1.50;1.00;;;10.80;98.20;;;;;;5071526;28;20942;-76
2022/03/17 11:35:20;;;;;;;1.50;1.10;;;11.00;98.20;;;;;;5069132;28;20497;-75
2022/03/17 11:37:46;;;;;;;1.50;1.10;;;11.00;98.20;;;;;;5079579;28;20737;-74
2022/03/17 11:40:15;;;;;;;1.50;1.10;;;11.00;98.20;;;;;;5087597;28;20967;-74
2022/03/17 11:42:44;;;;;;;1.50;1.03;;;11.10;98.20;;;;;;5062212;28;20481;-74
2022/03/17 11:45:40;;;;;;;1.50;1.00;;;11.20;98.20;;;;;;5054720;28;20462;-76
2022/03/17 11:48:14;;;;;;;1.50;1.10;;;11.20;98.20;;;;;;5061284;28;20508;-74
2022/03/17 11:50:48;;;;;;;1.50;1.10;;;11.10;98.20;;;;;;5061576;28;20472;-74
2022/03/17 11:53:37;;;;;;;1.50;1.00;;;11.00;98.20;;;;;;5060752;28;21030;-73
2022/03/17 11:56:05;;;;;;;1.50;1.00;;;11.00;98.20;;;;;;5063415;28;20614;-76
2022/03/17 11:58:42;;;;;;;1.50;1.10;;;11.10;98.20;;;;;;5065056;28;20963;-75
2022/03/17 12:01:11;;;;;;;1.50;1.10;;;11.10;98.20;;;;;;5061802;28;20457;-75
2022/03/17 12:03:40;;;;;;;1.50;1.10;;;11.20;98.20;;;;;;5079051;28;20801;-76
2022/03/17 12:06:12;;;;;;;1.50;1.00;;;11.40;98.20;;;;;;5072209;28;20866;-76
2022/03/17 12:08:41;;;;;;;1.50;1.00;;;11.40;97.50;;;;;;5067059;28;20464;-75
2022/03/17 12:11:10;;;;;;;1.50;1.00;;;11.40;97.30;;;;;;5062127;28;20493;-75
2022/03/17 12:13:37;;;;;;;1.50;1.07;;;11.50;97.10;;;;;;5063192;28;20464;-73
2022/03/17 12:16:05;;;;;;;1.50;1.20;;;11.50;96.90;;;;;;5060366;28;20547;-73
2022/03/17 12:19:01;;;;;;;1.50;1.00;;;11.60;96.90;;;;;;5083130;28;20968;-74
2022/03/17 12:22:05;;;;;;;1.50;1.10;;;11.70;97.50;;;;;;5062932;28;20461;-74
2022/03/17 12:24:48;;;;;;;1.50;1.00;;;11.90;96.00;;;;;;5086336;28;20565;-75
2022/03/17 12:27:22;;;;;;;1.50;1.00;;;11.90;95.90;;;;;;5065478;28;20481;-74
2022/03/17 12:29:50;;;;;;;1.50;1.00;;;11.90;96.20;;;;;;5063420;28;20497;-73
2022/03/17 12:32:19;;;;;;;1.50;1.00;;;12.00;96.40;;;;;;5068710;28;20465;-74
2022/03/17 12:34:47;;;;;;;1.50;1.00;;;12.00;96.00;;;;;;5086038;28;20963;-74
2022/03/17 12:37:15;;;;;;;1.50;1.00;;;11.90;95.30;;;;;;5077112;28;20503;-74
2022/03/17 12:39:42;;;;;;;1.50;1.00;;;12.00;95.10;;;;;;5084789;28;20464;-74
2022/03/17 12:42:17;;;;;;;1.50;1.10;;;12.00;93.30;;;;;;5075310;28;20468;-73
2022/03/17 12:44:59;;;;;;;1.50;1.00;;;12.00;92.60;;;;;;5066485;28;20467;-76
2022/03/17 12:47:28;;;;;;;1.50;1.00;;;12.10;93.00;;;;;;5064436;28;20985;-76
2022/03/17 12:49:56;;;;;;;1.50;1.00;;;12.20;93.80;;;;;;5066333;28;20489;-73
2022/03/17 12:52:25;;;;;;;1.50;1.00;;;12.20;92.00;;;;;;5065761;28;20450;-74
2022/03/17 12:54:53;;;;;;;1.50;1.00;;;12.10;92.20;;;;;;5065457;28;20477;-73
2022/03/17 12:57:22;;;;;;;1.80;1.47;;;12.10;91.60;;;;;;5066648;28;20493;-75
2022/03/17 12:59:49;;;;;;;1.50;1.00;;;12.10;91.20;;;;;;5070916;28;20466;-74
2022/03/17 13:02:18;;;;;;;1.50;1.00;;;12.20;91.20;;;;;;5065477;28;20468;-75
2022/03/17 13:04:46;;;;;;;1.50;1.00;;;12.20;91.10;;;;;;5056791;28;20458;-73
2022/03/17 13:07:14;;;;;;;1.50;1.00;;;12.30;90.60;;;;;;5070283;28;20492;-74
2022/03/17 13:09:41;;;;;;;1.50;1.00;;;12.40;90.10;;;;;;5061823;28;20729;-75